KMAW

Malden Regional Airport

Malden, Missouri, USA
METAR KMAW 170015Z AUTO 23006KT 10SM CLR 08/05 A3023 RMK AO2
Observed Flight Rules
Dec-17 @ 00:15 UTC (8 minutes ago) Visual Flight Rules
Wind Visibility Clouds
230° at 6 knots 10 miles
  • Clear skies
Temperatures Readings
Current 8°C / 46°F
Dewpoint 5°C / 41°F
Humidity 82%
Altimeter 30.23" Hg
Pressure 1024 hPa
Elevation 90
METAR KMAW 170015Z AUTO 23006KT 10SM CLR 08/05 A3023 RMK AO2
Observed Flight Rules
Dec-17 @ 00:15 UTC
(8 minutes ago)
VFR
Wind Visibility
230° at 6 knots 10 miles
Clouds
  • Clear skies
Temperature Dewpoint
8°C / 46°F 5°C / 41°F
Humidity Altimeter Pressure
82% 30.23" Hg 1024 hPa